createdAt,value
2023-05-19T00:00:15.876Z,6.98
2023-05-19T00:01:08.922Z,7.05
2023-05-19T00:02:00.744Z,6.94
2023-05-19T00:02:52.604Z,6.91
2023-05-19T00:03:57.407Z,7.37
2023-05-19T00:04:49.677Z,7.29
2023-05-19T00:05:46.373Z,7.38
2023-05-19T00:06:38.830Z,7.63
2023-05-19T00:07:32.422Z,7.91
2023-05-19T00:08:24.885Z,8.16
2023-05-19T00:09:16.971Z,8.19
2023-05-19T00:10:09.221Z,8.39
2023-05-19T00:11:01.814Z,8.49
2023-05-19T00:11:53.626Z,8.50
2023-05-19T00:12:45.394Z,7.83
2023-05-19T00:13:37.792Z,8.17
2023-05-19T00:14:29.579Z,7.89
2023-05-19T00:15:21.605Z,7.92
2023-05-19T00:16:13.660Z,7.93
2023-05-19T00:17:06.044Z,8.33
2023-05-19T00:17:58.039Z,7.51
2023-05-19T00:18:49.857Z,7.19
2023-05-19T00:19:41.514Z,7.07
2023-05-19T00:20:34.487Z,7.35
2023-05-19T00:21:27.274Z,7.14
2023-05-19T00:22:18.711Z,6.90
2023-05-19T00:23:11.224Z,7.53
2023-05-19T00:24:05.243Z,7.15
2023-05-19T00:24:56.774Z,7.12
2023-05-19T00:25:48.219Z,7.36
2023-05-19T00:26:39.880Z,7.06
2023-05-19T00:27:31.725Z,7.98
2023-05-19T00:28:25.788Z,8.28
2023-05-19T00:29:18.984Z,7.75
2023-05-19T00:30:11.441Z,8.26
2023-05-19T00:31:05.585Z,8.59
2023-05-19T00:31:57.783Z,8.55
2023-05-19T00:32:49.265Z,7.87
2023-05-19T00:33:41.851Z,7.89
2023-05-19T00:34:34.428Z,8.20
2023-05-19T00:35:26.095Z,8.20
2023-05-19T00:36:17.814Z,8.74
2023-05-19T00:37:09.284Z,8.05
2023-05-19T00:38:03.246Z,8.09
2023-05-19T00:38:55.034Z,8.27
2023-05-19T00:39:46.746Z,7.80
2023-05-19T00:40:38.386Z,8.14
2023-05-19T00:41:29.906Z,7.96
2023-05-19T00:42:23.561Z,8.00
2023-05-19T00:43:15.001Z,7.77
2023-05-19T00:44:09.500Z,7.97
2023-05-19T00:45:01.034Z,7.73
2023-05-19T00:45:54.982Z,7.99
2023-05-19T00:46:46.834Z,7.99
2023-05-19T00:47:39.353Z,7.68
2023-05-19T00:48:33.761Z,7.49
2023-05-19T00:49:27.533Z,7.68
2023-05-19T00:50:19.182Z,7.93
2023-05-19T00:51:14.605Z,7.56
2023-05-19T00:52:07.290Z,8.15
2023-05-19T00:53:03.378Z,7.96
2023-05-19T00:53:56.632Z,8.08
2023-05-19T00:54:49.378Z,8.29
2023-05-19T00:55:41.106Z,7.73
2023-05-19T00:56:33.493Z,7.96
2023-05-19T00:57:26.907Z,7.34
2023-05-19T00:58:19.043Z,7.55
2023-05-19T00:59:10.683Z,7.55
2023-05-19T01:00:03.756Z,7.83
2023-05-19T01:01:03.532Z,7.82
2023-05-19T01:01:56.099Z,7.33
2023-05-19T01:02:48.099Z,8.16
2023-05-19T01:03:40.857Z,7.39
2023-05-19T01:04:34.849Z,7.12
2023-05-19T01:05:28.992Z,6.90
2023-05-19T01:06:20.748Z,7.68
2023-05-19T01:07:13.558Z,7.50
2023-05-19T01:08:05.736Z,7.12
2023-05-19T01:08:57.395Z,7.18
2023-05-19T01:09:49.263Z,6.93
2023-05-19T01:10:41.009Z,7.54
2023-05-19T01:11:32.507Z,7.44
2023-05-19T01:12:26.005Z,7.42
2023-05-19T01:13:17.813Z,7.19
2023-05-19T01:14:09.362Z,7.13
2023-05-19T01:15:01.914Z,7.33
2023-05-19T01:16:12.965Z,7.80
2023-05-19T01:17:15.307Z,7.31
2023-05-19T01:18:18.649Z,7.01
2023-05-19T01:19:22.185Z,7.39
2023-05-19T01:20:32.034Z,6.93
2023-05-19T01:21:37.392Z,7.22
2023-05-19T01:22:54.893Z,7.41
2023-05-19T01:24:02.118Z,7.50
2023-05-19T01:25:12.894Z,7.01
2023-05-19T01:26:39.091Z,6.81
2023-05-19T01:28:08.508Z,7.57
2023-05-19T01:29:34.584Z,7.24
2023-05-19T01:30:39.134Z,7.52
2023-05-19T01:31:31.547Z,7.64
2023-05-19T01:32:25.473Z,7.41
2023-05-19T01:33:19.908Z,7.30
2023-05-19T01:34:14.222Z,7.30
2023-05-19T01:35:09.772Z,7.41
2023-05-19T01:36:04.328Z,7.54
2023-05-19T01:36:55.910Z,7.70
2023-05-19T01:37:54.607Z,7.63
2023-05-19T01:38:53.998Z,7.44
2023-05-19T01:39:46.420Z,7.75
2023-05-19T01:40:41.697Z,6.86
2023-05-19T01:41:34.846Z,7.50
2023-05-19T01:42:29.580Z,7.32
2023-05-19T01:43:23.913Z,7.41
2023-05-19T01:44:16.180Z,6.85
2023-05-19T01:45:10.613Z,7.21
2023-05-19T01:46:03.286Z,8.35
2023-05-19T01:46:55.556Z,7.17
2023-05-19T01:47:52.305Z,7.39
2023-05-19T01:48:44.904Z,7.57
2023-05-19T01:49:36.463Z,8.17
2023-05-19T01:50:30.241Z,7.78
2023-05-19T01:51:22.012Z,7.82
2023-05-19T01:52:13.762Z,7.93
2023-05-19T01:53:05.531Z,7.90
2023-05-19T01:53:59.442Z,7.73
2023-05-19T01:54:53.067Z,7.57
2023-05-19T01:55:50.482Z,8.39
2023-05-19T01:57:11.692Z,7.85
2023-05-19T01:58:33.721Z,7.70
2023-05-19T01:59:38.558Z,8.25
2023-05-19T02:00:48.338Z,7.85
2023-05-19T02:01:48.536Z,7.91
2023-05-19T02:03:08.129Z,8.21
2023-05-19T02:04:42.387Z,7.80
2023-05-19T02:05:52.357Z,7.96
2023-05-19T02:06:56.093Z,8.02
2023-05-19T02:08:02.390Z,7.88
2023-05-19T02:09:04.168Z,7.84
2023-05-19T02:10:06.695Z,8.08
2023-05-19T02:11:04.102Z,7.93
2023-05-19T02:12:02.988Z,8.21
2023-05-19T02:13:00.926Z,8.03
2023-05-19T02:13:59.503Z,8.01
2023-05-19T02:15:13.206Z,7.93
2023-05-19T02:16:06.252Z,8.55
2023-05-19T02:16:59.242Z,8.41
2023-05-19T02:17:54.554Z,7.61
2023-05-19T02:18:47.954Z,7.98
2023-05-19T02:19:43.558Z,8.16
2023-05-19T02:20:35.255Z,7.79
2023-05-19T02:21:26.831Z,8.44
2023-05-19T02:22:20.000Z,8.24
2023-05-19T02:23:12.197Z,8.37
2023-05-19T02:24:04.211Z,8.20
2023-05-19T02:24:59.920Z,8.26
2023-05-19T02:25:51.478Z,7.97
2023-05-19T02:26:43.812Z,8.10
2023-05-19T02:27:36.865Z,7.72
2023-05-19T02:28:28.679Z,7.41
2023-05-19T02:29:20.999Z,7.54
2023-05-19T02:30:12.829Z,7.60
2023-05-19T02:31:08.812Z,8.09
2023-05-19T02:32:02.047Z,8.07
2023-05-19T02:32:54.248Z,8.04
2023-05-19T02:33:46.366Z,8.17
2023-05-19T02:34:38.224Z,8.03
2023-05-19T02:35:30.067Z,7.86
2023-05-19T02:36:21.519Z,7.77
2023-05-19T02:37:15.792Z,7.78
2023-05-19T02:38:07.748Z,7.77
2023-05-19T02:39:03.002Z,8.08
2023-05-19T02:39:55.556Z,8.59
2023-05-19T02:40:47.065Z,7.98
2023-05-19T02:41:39.411Z,7.40
2023-05-19T02:42:31.333Z,7.67
2023-05-19T02:43:22.836Z,8.13
2023-05-19T02:44:14.547Z,8.10
2023-05-19T02:45:06.673Z,7.92
2023-05-19T02:46:01.170Z,8.20
2023-05-19T02:46:54.938Z,8.01
2023-05-19T02:47:48.465Z,8.40
2023-05-19T02:48:39.951Z,7.95
2023-05-19T02:49:35.761Z,7.99
2023-05-19T02:50:27.372Z,7.98
2023-05-19T02:51:19.087Z,7.73
2023-05-19T02:52:13.140Z,7.86
2023-05-19T02:53:05.110Z,7.99
2023-05-19T02:53:56.689Z,7.62
2023-05-19T02:54:48.159Z,7.81
2023-05-19T02:55:39.677Z,7.89
2023-05-19T02:56:31.180Z,7.78
2023-05-19T02:57:24.976Z,8.16
2023-05-19T02:58:16.734Z,7.18
2023-05-19T02:59:08.224Z,7.38
2023-05-19T02:59:59.844Z,7.66
2023-05-19T03:00:51.382Z,7.53
2023-05-19T03:01:43.205Z,7.13
2023-05-19T03:02:35.402Z,7.44
2023-05-19T03:03:27.274Z,7.31
2023-05-19T03:04:20.064Z,7.63
2023-05-19T03:05:11.621Z,7.40
2023-05-19T03:06:03.817Z,7.20
2023-05-19T03:06:55.712Z,6.81
2023-05-19T03:07:47.662Z,7.31
2023-05-19T03:08:41.557Z,7.04
2023-05-19T03:09:33.859Z,6.92
2023-05-19T03:10:25.698Z,7.31
2023-05-19T03:11:17.524Z,7.11
2023-05-19T03:12:09.109Z,7.49
2023-05-19T03:13:00.685Z,7.30
2023-05-19T03:13:52.185Z,6.71
2023-05-19T03:14:43.834Z,7.20
2023-05-19T03:15:36.490Z,7.59
2023-05-19T03:16:28.042Z,7.23
2023-05-19T03:17:19.825Z,7.88
2023-05-19T03:18:14.568Z,7.50
2023-05-19T03:19:06.163Z,7.33
2023-05-19T03:19:57.642Z,7.35
2023-05-19T03:20:56.429Z,7.54
2023-05-19T03:21:48.072Z,7.40
2023-05-19T03:22:39.545Z,6.92
2023-05-19T03:23:30.994Z,7.15
2023-05-19T03:24:23.004Z,7.14
2023-05-19T03:25:14.721Z,7.24
2023-05-19T03:26:06.764Z,6.82
2023-05-19T03:26:58.251Z,7.21
2023-05-19T03:27:52.356Z,7.21
2023-05-19T03:28:43.958Z,12.51
2023-05-19T03:29:35.485Z,6.83
2023-05-19T03:30:27.455Z,7.19
2023-05-19T03:31:36.299Z,6.83
2023-05-19T03:32:31.833Z,7.05
2023-05-19T03:33:23.946Z,6.77
2023-05-19T03:34:16.377Z,7.20
2023-05-19T03:35:08.695Z,19.63
2023-05-19T03:36:00.277Z,6.96
2023-05-19T03:36:57.090Z,6.94
2023-05-19T03:37:48.923Z,7.05
2023-05-19T03:38:40.701Z,7.02
2023-05-19T03:39:34.721Z,6.41
2023-05-19T03:40:26.236Z,6.76
2023-05-19T03:41:25.842Z,6.29
2023-05-19T03:42:17.576Z,7.09
2023-05-19T03:43:09.208Z,7.24
2023-05-19T03:44:08.080Z,7.09
2023-05-19T03:45:01.031Z,7.28
2023-05-19T03:45:53.452Z,7.55
2023-05-19T03:47:07.526Z,6.82
2023-05-19T03:48:19.134Z,6.85
2023-05-19T03:49:31.241Z,6.30
2023-05-19T03:50:54.523Z,6.90
2023-05-19T03:51:51.029Z,7.06
2023-05-19T03:52:50.517Z,7.75
2023-05-19T03:53:52.082Z,7.48
2023-05-19T03:54:45.049Z,7.19
2023-05-19T03:55:37.406Z,7.28
2023-05-19T03:56:28.919Z,7.56
2023-05-19T03:57:22.833Z,7.41
2023-05-19T03:58:14.584Z,7.09
2023-05-19T03:59:07.116Z,7.55
2023-05-19T04:00:03.130Z,7.15
2023-05-19T04:01:03.748Z,7.27
2023-05-19T04:01:58.507Z,7.76
2023-05-19T04:02:51.769Z,7.57
2023-05-19T04:03:43.423Z,8.15
2023-05-19T04:04:35.025Z,7.60
2023-05-19T04:05:26.587Z,7.08
2023-05-19T04:06:19.019Z,7.72
2023-05-19T04:07:11.660Z,7.55
2023-05-19T04:08:03.187Z,7.75
2023-05-19T04:08:54.844Z,7.87
2023-05-19T04:09:46.529Z,8.08
2023-05-19T04:10:39.324Z,8.20
2023-05-19T04:11:30.839Z,7.79
2023-05-19T04:12:22.779Z,7.90
2023-05-19T04:13:14.239Z,8.48
2023-05-19T04:14:06.300Z,7.86
2023-05-19T04:14:57.817Z,7.25
2023-05-19T04:15:49.922Z,7.69
2023-05-19T04:16:42.226Z,7.93
2023-05-19T04:17:33.878Z,8.23
2023-05-19T04:18:26.942Z,7.51
2023-05-19T04:19:20.580Z,7.83
2023-05-19T04:20:12.581Z,8.42
2023-05-19T04:21:04.346Z,7.73
2023-05-19T04:21:58.858Z,8.26
2023-05-19T04:22:50.364Z,7.92
2023-05-19T04:23:41.905Z,7.83
2023-05-19T04:24:33.781Z,8.34
2023-05-19T04:25:25.513Z,8.42
2023-05-19T04:26:18.039Z,7.67
2023-05-19T04:27:12.451Z,7.86
2023-05-19T04:28:05.049Z,7.88
2023-05-19T04:28:57.064Z,8.12
2023-05-19T04:29:49.532Z,8.51
2023-05-19T04:30:42.480Z,8.47
2023-05-19T04:31:35.867Z,8.05
2023-05-19T04:32:31.135Z,7.71
2023-05-19T04:33:27.154Z,7.57
2023-05-19T04:34:19.861Z,8.03
2023-05-19T04:35:13.604Z,7.78
2023-05-19T04:36:08.587Z,7.48
2023-05-19T04:37:02.858Z,7.50
2023-05-19T04:37:55.770Z,7.44
2023-05-19T04:38:54.975Z,7.54
2023-05-19T04:39:48.732Z,7.07
2023-05-19T04:40:43.072Z,7.05
2023-05-19T04:41:35.588Z,7.11
2023-05-19T04:42:33.141Z,7.21
2023-05-19T04:43:28.361Z,7.16
2023-05-19T04:44:20.264Z,7.25
2023-05-19T04:45:14.915Z,7.30
2023-05-19T04:46:13.435Z,7.42
2023-05-19T04:47:09.139Z,7.17
2023-05-19T04:48:01.845Z,6.84
2023-05-19T04:48:55.278Z,7.12
2023-05-19T04:49:47.169Z,6.94
2023-05-19T04:50:41.963Z,6.60
2023-05-19T04:51:33.905Z,7.32
2023-05-19T04:52:27.651Z,7.29
2023-05-19T04:53:19.249Z,6.98
2023-05-19T04:54:10.787Z,7.32
2023-05-19T04:55:02.399Z,7.43
2023-05-19T04:55:54.609Z,7.55
2023-05-19T04:56:46.200Z,6.79
2023-05-19T04:57:38.781Z,6.69
2023-05-19T04:58:31.503Z,7.12
2023-05-19T04:59:23.261Z,7.03
2023-05-19T05:00:15.928Z,7.56
2023-05-19T05:01:25.910Z,7.59
2023-05-19T05:02:18.845Z,7.63
2023-05-19T05:03:10.606Z,7.57
2023-05-19T05:04:03.410Z,7.41
2023-05-19T05:04:56.718Z,7.43
2023-05-19T05:05:50.077Z,8.16
2023-05-19T05:06:42.348Z,7.76
2023-05-19T05:07:34.964Z,7.73
2023-05-19T05:08:27.294Z,8.00
2023-05-19T05:09:19.866Z,7.70
2023-05-19T05:10:11.637Z,7.67
2023-05-19T05:11:04.775Z,7.81
2023-05-19T05:11:56.901Z,8.25
2023-05-19T05:12:51.923Z,7.90
2023-05-19T05:13:44.410Z,7.87
2023-05-19T05:14:37.641Z,8.28
2023-05-19T05:15:29.911Z,8.99
2023-05-19T05:16:24.601Z,8.56
2023-05-19T05:17:16.758Z,8.47
2023-05-19T05:18:09.172Z,8.48
2023-05-19T05:19:01.758Z,7.65
2023-05-19T05:19:54.042Z,7.74
2023-05-19T05:20:46.859Z,7.90
2023-05-19T05:21:39.014Z,7.93
2023-05-19T05:22:30.864Z,7.67
2023-05-19T05:23:25.248Z,7.95
2023-05-19T05:24:17.056Z,8.11
2023-05-19T05:25:14.473Z,7.44
2023-05-19T05:26:18.944Z,7.75
2023-05-19T05:27:13.634Z,7.01
2023-05-19T05:28:05.805Z,7.74
2023-05-19T05:28:59.578Z,7.79
2023-05-19T05:29:51.729Z,7.08
2023-05-19T05:30:46.408Z,7.54
2023-05-19T05:31:39.593Z,7.45
2023-05-19T05:32:31.939Z,7.55
2023-05-19T05:33:25.200Z,7.54
2023-05-19T05:34:17.225Z,7.14
2023-05-19T05:35:09.488Z,7.15
2023-05-19T05:36:03.863Z,7.44
2023-05-19T05:36:55.753Z,7.09
2023-05-19T05:37:47.475Z,7.19
2023-05-19T05:38:39.033Z,7.40
2023-05-19T05:39:32.827Z,6.93
2023-05-19T05:40:25.080Z,7.34
2023-05-19T05:41:18.107Z,7.37
2023-05-19T05:42:12.053Z,7.70
2023-05-19T05:43:05.026Z,7.22
2023-05-19T05:44:01.340Z,6.94
2023-05-19T05:44:54.113Z,7.46
2023-05-19T05:45:46.622Z,7.29
2023-05-19T05:46:38.517Z,7.35
2023-05-19T05:47:30.576Z,7.31
2023-05-19T05:48:22.682Z,7.14
2023-05-19T05:49:14.540Z,6.78
2023-05-19T05:50:10.828Z,6.87
2023-05-19T05:51:02.929Z,6.64
2023-05-19T05:52:05.672Z,6.13
2023-05-19T05:53:06.530Z,6.14
2023-05-19T05:54:02.266Z,5.52
2023-05-19T05:55:01.897Z,5.33
2023-05-19T05:55:54.638Z,4.65
2023-05-19T05:56:53.236Z,4.83
2023-05-19T05:57:45.104Z,5.33
2023-05-19T05:58:39.035Z,5.28
2023-05-19T05:59:30.793Z,4.68
2023-05-19T06:00:22.539Z,4.57
2023-05-19T06:01:17.746Z,4.93
2023-05-19T06:02:09.686Z,5.03
2023-05-19T06:03:03.179Z,4.88
2023-05-19T06:03:55.849Z,4.77
2023-05-19T06:04:49.047Z,5.00
2023-05-19T06:05:40.614Z,4.86
2023-05-19T06:06:35.965Z,4.64
2023-05-19T06:07:27.504Z,4.23
2023-05-19T06:08:19.099Z,4.22
2023-05-19T06:09:10.756Z,4.40
2023-05-19T06:10:02.888Z,4.45
2023-05-19T06:10:55.256Z,4.14
2023-05-19T06:11:46.828Z,4.39
2023-05-19T06:12:43.342Z,4.55
2023-05-19T06:13:36.789Z,4.67
2023-05-19T06:14:31.313Z,4.46
2023-05-19T06:15:41.607Z,4.59
2023-05-19T06:16:52.964Z,4.11
2023-05-19T06:17:44.797Z,4.33
2023-05-19T06:18:40.231Z,4.38
2023-05-19T06:19:31.846Z,4.43
2023-05-19T06:20:23.425Z,4.37
2023-05-19T06:21:15.927Z,4.18
2023-05-19T06:22:07.806Z,4.22
2023-05-19T06:23:00.143Z,4.28
2023-05-19T06:23:52.733Z,4.40
2023-05-19T06:24:44.761Z,4.27
2023-05-19T06:25:38.584Z,4.19
2023-05-19T06:26:30.604Z,4.23
2023-05-19T06:27:22.069Z,4.03
2023-05-19T06:28:13.573Z,4.34
2023-05-19T06:29:05.183Z,4.20
2023-05-19T06:29:56.915Z,4.00
2023-05-19T06:30:52.068Z,4.16
2023-05-19T06:31:57.153Z,4.02
2023-05-19T06:32:49.684Z,4.02
2023-05-19T06:33:43.564Z,4.05
2023-05-19T06:34:35.517Z,3.63
2023-05-19T06:35:26.999Z,3.89
2023-05-19T06:36:18.542Z,4.12
2023-05-19T06:37:11.161Z,3.96
2023-05-19T06:38:03.049Z,4.40
2023-05-19T06:38:54.723Z,4.11
2023-05-19T06:39:46.330Z,3.94
2023-05-19T06:40:38.418Z,3.75
2023-05-19T06:41:30.152Z,3.69
2023-05-19T06:42:25.162Z,3.71
2023-05-19T06:43:25.829Z,3.61
2023-05-19T06:44:22.610Z,3.94
2023-05-19T06:45:15.130Z,4.27
2023-05-19T06:46:06.894Z,4.12
2023-05-19T06:46:58.616Z,3.75
2023-05-19T06:47:50.428Z,3.97
2023-05-19T06:48:42.116Z,3.79
2023-05-19T06:49:35.680Z,4.13
2023-05-19T06:50:27.472Z,4.28
2023-05-19T06:51:21.712Z,3.69
2023-05-19T06:52:17.490Z,4.12
2023-05-19T06:53:11.174Z,4.14
2023-05-19T06:54:03.406Z,3.87
2023-05-19T06:54:55.053Z,4.10
2023-05-19T06:55:57.878Z,4.15
2023-05-19T06:56:52.332Z,4.37
2023-05-19T06:57:43.841Z,4.29
2023-05-19T06:58:36.699Z,3.98
2023-05-19T06:59:30.320Z,3.86
2023-05-19T07:00:23.840Z,4.35
2023-05-19T07:01:19.818Z,3.77
2023-05-19T07:02:17.973Z,4.18
2023-05-19T07:03:10.265Z,4.09
2023-05-19T07:04:02.946Z,3.90
2023-05-19T07:04:58.759Z,3.75
2023-05-19T07:05:51.078Z,4.58
2023-05-19T07:06:42.897Z,4.32
2023-05-19T07:07:34.523Z,3.89
2023-05-19T07:08:27.876Z,4.03
2023-05-19T07:09:19.376Z,3.94
2023-05-19T07:10:12.929Z,4.17
2023-05-19T07:11:04.817Z,4.05
2023-05-19T07:11:58.569Z,3.86
2023-05-19T07:12:50.063Z,3.60
2023-05-19T07:13:43.290Z,3.95
2023-05-19T07:14:36.461Z,3.90
2023-05-19T07:15:28.574Z,4.03
2023-05-19T07:16:20.210Z,3.73
2023-05-19T07:17:11.730Z,3.49
2023-05-19T07:18:07.567Z,3.88
2023-05-19T07:19:00.837Z,3.49
2023-05-19T07:19:52.400Z,3.81
2023-05-19T07:20:44.181Z,3.46
2023-05-19T07:21:35.832Z,3.67
2023-05-19T07:22:27.483Z,3.52
2023-05-19T07:23:20.261Z,3.57
2023-05-19T07:24:12.556Z,3.71
2023-05-19T07:25:04.601Z,3.63
2023-05-19T07:26:00.393Z,3.19
2023-05-19T07:26:51.974Z,3.31
2023-05-19T07:27:43.413Z,3.12
2023-05-19T07:28:34.966Z,2.98
2023-05-19T07:29:26.501Z,3.06
2023-05-19T07:30:18.242Z,3.30
2023-05-19T07:31:09.827Z,3.55
2023-05-19T07:32:01.351Z,3.68
2023-05-19T07:32:53.001Z,3.40
2023-05-19T07:33:44.614Z,3.26
2023-05-19T07:34:36.802Z,2.97
2023-05-19T07:35:30.217Z,3.60
2023-05-19T07:36:21.713Z,3.28
2023-05-19T07:37:15.317Z,3.02
2023-05-19T07:38:07.431Z,2.66
2023-05-19T07:38:59.020Z,2.88
2023-05-19T07:39:50.475Z,2.91
2023-05-19T07:40:41.982Z,3.04
2023-05-19T07:41:34.434Z,3.25
2023-05-19T07:42:27.882Z,3.08
2023-05-19T07:43:19.522Z,3.40
2023-05-19T07:44:11.103Z,3.16
2023-05-19T07:45:03.670Z,3.09
2023-05-19T07:45:58.699Z,2.94
2023-05-19T07:46:50.575Z,2.74
2023-05-19T07:47:44.717Z,2.98
2023-05-19T07:48:36.812Z,2.51
2023-05-19T07:49:28.357Z,2.79
2023-05-19T07:50:20.521Z,2.81
2023-05-19T07:51:13.342Z,2.79
2023-05-19T07:52:08.076Z,2.80
2023-05-19T07:52:59.714Z,2.82
2023-05-19T07:53:53.809Z,2.62
2023-05-19T07:54:46.063Z,3.02
2023-05-19T07:55:37.561Z,2.80
2023-05-19T07:56:29.582Z,2.72
2023-05-19T07:57:21.130Z,2.99
2023-05-19T07:58:12.574Z,2.85
2023-05-19T07:59:04.582Z,2.89
2023-05-19T07:59:56.716Z,2.78
2023-05-19T08:00:50.768Z,2.58
2023-05-19T08:01:42.348Z,2.52
2023-05-19T08:02:34.056Z,2.72
2023-05-19T08:03:30.612Z,3.06
2023-05-19T08:04:25.651Z,3.19
2023-05-19T08:05:18.355Z,3.15
2023-05-19T08:06:11.095Z,2.85
2023-05-19T08:07:02.649Z,2.99
2023-05-19T08:07:54.121Z,3.02
2023-05-19T08:08:46.281Z,2.70
2023-05-19T08:09:37.827Z,2.45
2023-05-19T08:10:29.435Z,2.53
2023-05-19T08:11:21.664Z,2.81
2023-05-19T08:12:13.499Z,2.86
2023-05-19T08:13:05.332Z,2.71
2023-05-19T08:13:57.030Z,2.84
2023-05-19T08:14:50.695Z,2.87
2023-05-19T08:15:42.774Z,2.94
2023-05-19T08:16:34.371Z,2.88
2023-05-19T08:17:25.941Z,2.89
2023-05-19T08:18:17.436Z,2.94
2023-05-19T08:19:09.285Z,2.94
2023-05-19T08:20:00.734Z,3.17
2023-05-19T08:20:54.786Z,2.94
2023-05-19T08:21:46.228Z,2.55
2023-05-19T08:22:38.132Z,2.65
2023-05-19T08:23:29.907Z,2.78
2023-05-19T08:24:21.373Z,2.47
2023-05-19T08:25:13.963Z,2.98
2023-05-19T08:26:05.761Z,2.75
2023-05-19T08:26:57.394Z,2.63
2023-05-19T08:27:48.894Z,2.55
2023-05-19T08:28:40.797Z,2.96
2023-05-19T08:29:32.353Z,2.52
2023-05-19T08:30:24.299Z,2.91
2023-05-19T08:31:18.286Z,2.67
2023-05-19T08:32:12.404Z,2.83
2023-05-19T08:33:05.065Z,2.81
2023-05-19T08:33:56.758Z,2.74
2023-05-19T08:34:49.633Z,2.41
2023-05-19T08:35:41.111Z,2.79
2023-05-19T08:36:33.899Z,2.78
2023-05-19T08:37:25.549Z,2.78
2023-05-19T08:38:16.978Z,2.76
2023-05-19T08:39:08.489Z,2.63
2023-05-19T08:39:59.897Z,2.98
2023-05-19T08:40:51.646Z,2.53
2023-05-19T08:41:43.332Z,2.63
2023-05-19T08:42:35.199Z,2.50
2023-05-19T08:43:27.073Z,2.55
2023-05-19T08:44:19.218Z,2.57
2023-05-19T08:45:11.350Z,2.60
2023-05-19T08:46:03.892Z,2.75
2023-05-19T08:46:58.514Z,2.45
2023-05-19T08:47:51.310Z,2.63
2023-05-19T08:48:44.652Z,2.93
2023-05-19T08:49:44.434Z,2.73
2023-05-19T08:50:41.187Z,2.42
2023-05-19T08:51:58.641Z,2.62
2023-05-19T08:53:01.570Z,2.49
2023-05-19T08:54:00.328Z,2.75
2023-05-19T08:55:00.899Z,3.17
2023-05-19T08:56:11.461Z,2.69
2023-05-19T08:57:03.324Z,2.84
2023-05-19T08:57:56.258Z,2.55
2023-05-19T08:58:50.799Z,2.33
2023-05-19T08:59:43.582Z,2.62
2023-05-19T09:00:35.736Z,2.46
2023-05-19T09:01:31.283Z,2.51
2023-05-19T09:02:23.837Z,2.67
2023-05-19T09:03:23.495Z,2.57
2023-05-19T09:04:17.392Z,2.34
2023-05-19T09:05:10.324Z,2.42
2023-05-19T09:06:07.214Z,2.66
2023-05-19T09:07:05.500Z,2.39
2023-05-19T09:07:57.094Z,2.65
2023-05-19T09:08:48.716Z,2.45
2023-05-19T09:09:43.421Z,2.52
2023-05-19T09:10:34.921Z,2.36
2023-05-19T09:11:26.714Z,2.43
2023-05-19T09:12:18.124Z,2.69
2023-05-19T09:13:12.320Z,2.47
2023-05-19T09:14:05.013Z,2.11
2023-05-19T09:14:57.949Z,2.24
2023-05-19T09:15:52.849Z,2.56
2023-05-19T09:16:48.143Z,2.69
2023-05-19T09:17:39.966Z,2.41
2023-05-19T09:18:34.089Z,2.47
2023-05-19T09:19:29.390Z,2.21
2023-05-19T09:20:21.013Z,2.44
2023-05-19T09:21:13.084Z,2.27
2023-05-19T09:22:04.787Z,2.30
2023-05-19T09:22:57.318Z,2.66
2023-05-19T09:23:49.577Z,2.39
2023-05-19T09:24:42.123Z,2.37
2023-05-19T09:25:35.250Z,2.27
2023-05-19T09:26:40.465Z,2.46
2023-05-19T09:27:35.594Z,2.28
2023-05-19T09:28:33.907Z,2.18
2023-05-19T09:29:28.324Z,2.18
2023-05-19T09:30:20.286Z,2.53
2023-05-19T09:31:11.830Z,2.48
2023-05-19T09:32:06.011Z,2.47
2023-05-19T09:33:00.860Z,2.50
2023-05-19T09:33:53.766Z,2.30
2023-05-19T09:34:45.277Z,2.27
2023-05-19T09:35:37.128Z,2.53
2023-05-19T09:36:29.843Z,2.44
2023-05-19T09:37:24.545Z,2.82
2023-05-19T09:38:19.345Z,2.69
2023-05-19T09:39:17.921Z,2.70
2023-05-19T09:40:13.909Z,2.52
2023-05-19T09:41:07.548Z,2.27
2023-05-19T09:41:59.146Z,2.24
2023-05-19T09:42:50.615Z,2.26
2023-05-19T09:43:54.607Z,2.40
2023-05-19T09:44:47.862Z,2.35
2023-05-19T09:45:39.587Z,2.34
2023-05-19T09:46:31.155Z,2.58
2023-05-19T09:47:24.806Z,2.31
2023-05-19T09:48:16.470Z,2.30
2023-05-19T09:49:09.557Z,2.59
2023-05-19T09:50:01.034Z,2.41
2023-05-19T09:50:53.991Z,2.21
2023-05-19T09:51:46.005Z,2.10
2023-05-19T09:52:39.002Z,2.59
2023-05-19T09:53:32.327Z,2.32
2023-05-19T09:54:25.616Z,2.26
2023-05-19T09:55:18.566Z,2.36
2023-05-19T09:56:11.036Z,2.00
2023-05-19T09:57:07.741Z,2.09
2023-05-19T09:58:01.198Z,2.33
2023-05-19T09:58:52.817Z,2.63
2023-05-19T09:59:44.784Z,2.82
2023-05-19T10:00:38.931Z,2.49
2023-05-19T10:01:33.664Z,2.34
2023-05-19T10:02:26.102Z,2.43
2023-05-19T10:03:18.788Z,2.61
2023-05-19T10:04:11.448Z,2.79
2023-05-19T10:05:04.268Z,2.43
2023-05-19T10:06:01.347Z,2.35
2023-05-19T10:06:55.222Z,2.29
2023-05-19T10:07:50.231Z,2.31
2023-05-19T10:08:43.752Z,2.48
2023-05-19T10:09:37.207Z,2.31
2023-05-19T10:10:31.133Z,2.39
2023-05-19T10:11:23.416Z,2.58
2023-05-19T10:12:15.524Z,2.50
2023-05-19T10:13:07.754Z,2.67
2023-05-19T10:13:59.803Z,2.58
2023-05-19T10:14:54.700Z,2.17
2023-05-19T10:15:58.108Z,2.31
2023-05-19T10:16:52.891Z,2.27
2023-05-19T10:17:45.603Z,2.76
2023-05-19T10:18:40.014Z,2.61
2023-05-19T10:19:31.874Z,2.58
2023-05-19T10:20:25.435Z,2.43
2023-05-19T10:21:20.561Z,2.38
2023-05-19T10:22:12.004Z,2.32
2023-05-19T10:23:04.111Z,2.08
2023-05-19T10:23:58.035Z,2.41
2023-05-19T10:24:49.849Z,2.36
2023-05-19T10:25:43.456Z,2.61
2023-05-19T10:26:36.500Z,2.49
2023-05-19T10:27:30.614Z,2.39
2023-05-19T10:28:28.036Z,2.53
2023-05-19T10:29:25.469Z,2.27
2023-05-19T10:30:28.276Z,2.28
2023-05-19T10:31:24.390Z,2.06
2023-05-19T10:32:23.485Z,2.20
2023-05-19T10:33:28.857Z,2.44
2023-05-19T10:34:29.600Z,2.48
2023-05-19T10:35:39.964Z,2.51
2023-05-19T10:37:09.214Z,2.32
2023-05-19T10:38:13.130Z,2.67
2023-05-19T10:39:06.220Z,2.72
2023-05-19T10:39:58.801Z,2.56
2023-05-19T10:41:29.256Z,2.52
2023-05-19T10:42:45.818Z,2.55
2023-05-19T10:44:09.156Z,2.58
2023-05-19T10:45:17.358Z,2.60
2023-05-19T10:46:09.420Z,2.36
2023-05-19T10:47:01.138Z,2.39
2023-05-19T10:47:54.470Z,2.37
2023-05-19T10:48:46.528Z,2.17
2023-05-19T10:49:39.764Z,2.58
2023-05-19T10:50:39.018Z,2.43
2023-05-19T10:51:32.313Z,2.58
2023-05-19T10:52:29.682Z,2.60
2023-05-19T10:53:22.759Z,2.50
2023-05-19T10:54:17.046Z,2.40
2023-05-19T10:55:15.572Z,2.21
2023-05-19T10:56:08.161Z,2.37
2023-05-19T10:57:00.541Z,2.29
2023-05-19T10:57:58.228Z,2.72
2023-05-19T10:58:50.449Z,2.43
2023-05-19T10:59:42.057Z,2.37
2023-05-19T11:00:33.727Z,2.41
2023-05-19T11:01:35.792Z,2.91
2023-05-19T11:02:48.565Z,2.54
2023-05-19T11:03:47.480Z,2.53
2023-05-19T11:04:49.570Z,2.69
2023-05-19T11:05:45.512Z,2.62
2023-05-19T11:06:37.960Z,2.48
2023-05-19T11:07:31.374Z,2.48
2023-05-19T11:08:33.600Z,2.32
2023-05-19T11:09:37.939Z,2.30
2023-05-19T11:10:32.208Z,2.51
2023-05-19T11:11:26.681Z,2.37
2023-05-19T11:12:25.638Z,2.58
2023-05-19T11:13:23.421Z,2.45
2023-05-19T11:14:18.678Z,2.57
2023-05-19T11:15:13.447Z,2.48
2023-05-19T11:16:09.140Z,2.53
2023-05-19T11:17:00.897Z,2.75
2023-05-19T11:17:53.722Z,2.71
2023-05-19T11:18:49.330Z,2.71
2023-05-19T11:19:56.051Z,2.73
2023-05-19T11:20:58.290Z,2.59
2023-05-19T11:21:52.567Z,2.85
2023-05-19T11:23:06.041Z,2.66
2023-05-19T11:23:57.781Z,2.26
2023-05-19T11:24:57.888Z,2.42
2023-05-19T11:25:53.669Z,2.47
2023-05-19T11:26:46.229Z,2.72
2023-05-19T11:27:40.066Z,2.49
2023-05-19T11:28:33.604Z,2.33
2023-05-19T11:29:25.399Z,2.53
2023-05-19T11:30:20.043Z,2.41
2023-05-19T11:31:12.728Z,2.33
2023-05-19T11:32:05.157Z,2.47
2023-05-19T11:32:57.043Z,2.74
2023-05-19T11:33:48.835Z,2.54
2023-05-19T11:34:40.710Z,2.47
2023-05-19T11:35:35.440Z,2.59
2023-05-19T11:36:29.203Z,2.49
2023-05-19T11:37:20.767Z,2.66
2023-05-19T11:38:14.239Z,2.47
2023-05-19T11:39:06.520Z,2.98
2023-05-19T11:40:01.984Z,2.37
2023-05-19T11:40:54.482Z,2.52
2023-05-19T11:41:46.066Z,2.65
2023-05-19T11:42:37.726Z,2.28
2023-05-19T11:43:29.287Z,2.44
2023-05-19T11:44:20.764Z,2.29
2023-05-19T11:45:12.601Z,2.45
2023-05-19T11:46:06.435Z,2.57
2023-05-19T11:47:01.114Z,2.47
2023-05-19T11:48:53.485Z,2.68
2023-05-19T11:49:47.951Z,2.40
2023-05-19T11:50:46.749Z,2.51
2023-05-19T11:51:39.323Z,2.57
2023-05-19T11:52:30.895Z,2.63
2023-05-19T11:53:24.386Z,2.48
2023-05-19T11:54:19.187Z,2.45
2023-05-19T11:55:15.878Z,2.55
2023-05-19T11:56:07.578Z,2.54
2023-05-19T11:57:03.633Z,2.70
2023-05-19T11:58:02.977Z,2.71
2023-05-19T11:58:55.297Z,2.68
2023-05-19T11:59:49.631Z,2.61
2023-05-19T12:00:42.764Z,2.67
2023-05-19T12:01:35.617Z,2.51
2023-05-19T12:02:27.784Z,2.36
2023-05-19T12:03:28.312Z,2.40
2023-05-19T12:04:20.089Z,2.64
2023-05-19T12:05:19.843Z,2.37
2023-05-19T12:06:11.515Z,2.58